sensor_id;sensor_type;location;lat;lon;timestamp;pressure;altitude;pressure_sealevel;temperature;humidity
5380;BME280;2713;42.680;23.310;2023-08-01T00:00:14;94732.41;;;23.92;56.81
5380;BME280;2713;42.680;23.310;2023-08-01T00:02:43;94733.75;;;23.84;57.01
5380;BME280;2713;42.680;23.310;2023-08-01T00:05:10;94728.75;;;23.67;57.37
5380;BME280;2713;42.680;23.310;2023-08-01T00:07:37;94737.53;;;23.73;57.23
5380;BME280;2713;42.680;23.310;2023-08-01T00:10:06;94739.91;;;23.64;57.50
5380;BME280;2713;42.680;23.310;2023-08-01T00:12:33;94734.34;;;23.66;57.55
5380;BME280;2713;42.680;23.310;2023-08-01T00:15:00;94731.66;;;23.76;56.97
5380;BME280;2713;42.680;23.310;2023-08-01T00:17:27;94735.38;;;23.70;57.29
5380;BME280;2713;42.680;23.310;2023-08-01T00:19:54;94731.38;;;23.78;57.27
5380;BME280;2713;42.680;23.310;2023-08-01T00:22:21;94725.56;;;23.76;56.97
5380;BME280;2713;42.680;23.310;2023-08-01T00:24:48;94727.13;;;23.82;56.91
5380;BME280;2713;42.680;23.310;2023-08-01T00:27:16;94726.84;;;23.88;56.67
5380;BME280;2713;42.680;23.310;2023-08-01T00:29:42;94720.19;;;23.91;56.28
5380;BME280;2713;42.680;23.310;2023-08-01T00:32:09;94727.38;;;23.90;56.40
5380;BME280;2713;42.680;23.310;2023-08-01T00:34:36;94728.44;;;23.89;56.72
5380;BME280;2713;42.680;23.310;2023-08-01T00:37:04;94730.84;;;23.86;56.72
5380;BME280;2713;42.680;23.310;2023-08-01T00:39:31;94728.69;;;23.88;56.55
5380;BME280;2713;42.680;23.310;2023-08-01T00:41:58;94730.34;;;23.79;56.65
5380;BME280;2713;42.680;23.310;2023-08-01T00:44:26;94722.09;;;23.85;56.64
5380;BME280;2713;42.680;23.310;2023-08-01T00:46:53;94723.69;;;23.81;56.34
5380;BME280;2713;42.680;23.310;2023-08-01T00:49:20;94731.38;;;23.78;56.30
5380;BME280;2713;42.680;23.310;2023-08-01T00:51:47;94732.22;;;23.68;56.75
5380;BME280;2713;42.680;23.310;2023-08-01T00:54:14;94716.31;;;23.63;56.78
5380;BME280;2713;42.680;23.310;2023-08-01T00:56:41;94718.69;;;23.69;56.27
5380;BME280;2713;42.680;23.310;2023-08-01T00:59:08;94708.56;;;23.66;56.09
5380;BME280;2713;42.680;23.310;2023-08-01T01:01:36;94721.34;;;23.69;56.20
5380;BME280;2713;42.680;23.310;2023-08-01T01:04:03;94699.03;;;23.65;55.96
5380;BME280;2713;42.680;23.310;2023-08-01T01:06:32;94717.91;;;23.59;56.27
5380;BME280;2713;42.680;23.310;2023-08-01T01:09:01;94717.91;;;23.54;56.18
5380;BME280;2713;42.680;23.310;2023-08-01T01:11:30;94716.56;;;23.61;56.34
5380;BME280;2713;42.680;23.310;2023-08-01T01:13:57;94720.78;;;23.67;55.85
5380;BME280;2713;42.680;23.310;2023-08-01T01:16:23;94705.94;;;23.61;55.92
5380;BME280;2713;42.680;23.310;2023-08-01T01:18:52;94711.81;;;23.48;56.48
5380;BME280;2713;42.680;23.310;2023-08-01T01:21:20;94709.69;;;23.55;55.95
5380;BME280;2713;42.680;23.310;2023-08-01T01:23:47;94699.59;;;23.62;55.62
5380;BME280;2713;42.680;23.310;2023-08-01T01:26:18;94659.00;;;23.37;55.20
5380;BME280;2713;42.680;23.310;2023-08-01T01:28:47;94697.97;;;23.66;55.34
5380;BME280;2713;42.680;23.310;2023-08-01T01:34:03;94683.69;;;23.52;55.58
5380;BME280;2713;42.680;23.310;2023-08-01T01:36:31;94695.59;;;23.50;55.67
5380;BME280;2713;42.680;23.310;2023-08-01T01:38:59;94701.19;;;23.38;55.67
5380;BME280;2713;42.680;23.310;2023-08-01T01:41:26;94692.69;;;23.46;55.90
5380;BME280;2713;42.680;23.310;2023-08-01T01:43:53;94686.88;;;23.49;55.49
5380;BME280;2713;42.680;23.310;2023-08-01T01:46:20;94690.56;;;23.53;55.49
5380;BME280;2713;42.680;23.310;2023-08-01T01:48:46;94688.16;;;23.67;55.02
5380;BME280;2713;42.680;23.310;2023-08-01T01:51:13;94691.59;;;23.72;54.86
5380;BME280;2713;42.680;23.310;2023-08-01T01:53:41;94698.75;;;23.72;54.89
5380;BME280;2713;42.680;23.310;2023-08-01T01:56:09;94701.66;;;23.70;54.79
5380;BME280;2713;42.680;23.310;2023-08-01T01:58:36;94700.06;;;23.74;54.18
5380;BME280;2713;42.680;23.310;2023-08-01T02:01:03;94705.34;;;23.85;53.92
5380;BME280;2713;42.680;23.310;2023-08-01T02:03:30;94697.16;;;23.76;53.89
5380;BME280;2713;42.680;23.310;2023-08-01T02:05:58;94707.75;;;23.81;53.97
5380;BME280;2713;42.680;23.310;2023-08-01T02:08:25;94701.13;;;23.79;53.86
5380;BME280;2713;42.680;23.310;2023-08-01T02:10:53;94697.44;;;23.69;53.97
5380;BME280;2713;42.680;23.310;2023-08-01T02:13:20;94695.31;;;23.71;53.70
5380;BME280;2713;42.680;23.310;2023-08-01T02:15:47;94696.38;;;23.65;53.75
5380;BME280;2713;42.680;23.310;2023-08-01T02:18:14;94696.38;;;23.60;53.88
5380;BME280;2713;42.680;23.310;2023-08-01T02:20:40;94697.97;;;23.56;54.25
5380;BME280;2713;42.680;23.310;2023-08-01T02:23:07;94701.97;;;23.39;54.69
5380;BME280;2713;42.680;23.310;2023-08-01T02:25:38;94710.47;;;23.51;54.48
5380;BME280;2713;42.680;23.310;2023-08-01T02:28:06;94698.25;;;23.55;54.09
5380;BME280;2713;42.680;23.310;2023-08-01T02:30:35;94699.06;;;23.55;54.07
5380;BME280;2713;42.680;23.310;2023-08-01T02:33:02;94688.72;;;23.59;53.73
5380;BME280;2713;42.680;23.310;2023-08-01T02:35:29;94681.81;;;23.43;54.12
5380;BME280;2713;42.680;23.310;2023-08-01T02:37:56;94688.72;;;23.29;54.94
5380;BME280;2713;42.680;23.310;2023-08-01T02:40:23;94696.69;;;23.39;54.56
5380;BME280;2713;42.680;23.310;2023-08-01T02:42:50;94695.63;;;23.19;54.46
5380;BME280;2713;42.680;23.310;2023-08-01T02:45:18;94688.47;;;23.15;54.43
5380;BME280;2713;42.680;23.310;2023-08-01T02:47:45;94689.53;;;23.14;54.49
5380;BME280;2713;42.680;23.310;2023-08-01T02:50:11;94695.91;;;23.08;54.82
5380;BME280;2713;42.680;23.310;2023-08-01T02:52:38;94696.94;;;22.92;55.21
5380;BME280;2713;42.680;23.310;2023-08-01T02:55:06;94696.69;;;22.83;55.24
5380;BME280;2713;42.680;23.310;2023-08-01T02:57:33;94693.75;;;22.85;55.12
5380;BME280;2713;42.680;23.310;2023-08-01T03:00:00;94699.34;;;23.03;54.69
5380;BME280;2713;42.680;23.310;2023-08-01T03:02:31;94697.75;;;22.92;54.91
5380;BME280;2713;42.680;23.310;2023-08-01T03:04:58;94700.94;;;22.94;54.93
5380;BME280;2713;42.680;23.310;2023-08-01T03:07:25;94698.03;;;23.01;54.74
5380;BME280;2713;42.680;23.310;2023-08-01T03:09:51;94706.50;;;23.13;54.26
5380;BME280;2713;42.680;23.310;2023-08-01T03:12:19;94696.94;;;23.17;54.11
5380;BME280;2713;42.680;23.310;2023-08-01T03:14:46;94695.88;;;23.23;53.74
5380;BME280;2713;42.680;23.310;2023-08-01T03:17:13;94704.38;;;23.05;54.16
5380;BME280;2713;42.680;23.310;2023-08-01T03:19:42;94694.31;;;22.97;54.21
5380;BME280;2713;42.680;23.310;2023-08-01T03:22:09;94696.41;;;23.05;54.02
5380;BME280;2713;42.680;23.310;2023-08-01T03:24:36;94705.69;;;23.02;54.33
5380;BME280;2713;42.680;23.310;2023-08-01T03:27:04;94705.97;;;22.91;54.84
5380;BME280;2713;42.680;23.310;2023-08-01T03:29:30;94699.06;;;22.80;55.20
5380;BME280;2713;42.680;23.310;2023-08-01T03:31:57;94704.34;;;22.85;55.30
5380;BME280;2713;42.680;23.310;2023-08-01T03:34:24;94708.09;;;22.84;55.37
5380;BME280;2713;42.680;23.310;2023-08-01T03:36:54;94710.75;;;22.84;55.59
5380;BME280;2713;42.680;23.310;2023-08-01T03:39:21;94706.75;;;22.91;55.58
5380;BME280;2713;42.680;23.310;2023-08-01T03:41:48;94714.47;;;22.98;54.89
5380;BME280;2713;42.680;23.310;2023-08-01T03:44:15;94708.06;;;22.89;55.06
5380;BME280;2713;42.680;23.310;2023-08-01T03:46:42;94718.69;;;22.94;55.16
5380;BME280;2713;42.680;23.310;2023-08-01T03:49:09;94714.16;;;22.74;55.66
5380;BME280;2713;42.680;23.310;2023-08-01T03:51:36;94717.09;;;22.88;55.58
5380;BME280;2713;42.680;23.310;2023-08-01T03:54:04;94713.13;;;23.00;55.31
5380;BME280;2713;42.680;23.310;2023-08-01T03:56:31;94716.31;;;22.97;56.36
5380;BME280;2713;42.680;23.310;2023-08-01T03:58:58;94712.88;;;22.97;56.72
5380;BME280;2713;42.680;23.310;2023-08-01T04:01:25;94718.16;;;22.92;57.51
5380;BME280;2713;42.680;23.310;2023-08-01T04:03:53;94723.47;;;22.87;57.96
5380;BME280;2713;42.680;23.310;2023-08-01T04:06:19;94725.56;;;22.85;58.33
5380;BME280;2713;42.680;23.310;2023-08-01T04:08:46;94725.56;;;22.95;58.37
5380;BME280;2713;42.680;23.310;2023-08-01T04:11:14;94727.66;;;22.78;58.87
5380;BME280;2713;42.680;23.310;2023-08-01T04:13:41;94723.72;;;22.80;58.97
5380;BME280;2713;42.680;23.310;2023-08-01T04:16:08;94725.56;;;22.85;58.74
5380;BME280;2713;42.680;23.310;2023-08-01T04:18:34;94727.72;;;22.98;58.53
5380;BME280;2713;42.680;23.310;2023-08-01T04:21:02;94729.28;;;22.99;58.40
5380;BME280;2713;42.680;23.310;2023-08-01T04:23:28;94729.84;;;22.91;58.43
5380;BME280;2713;42.680;23.310;2023-08-01T04:25:55;94731.41;;;22.92;58.46
5380;BME280;2713;42.680;23.310;2023-08-01T04:28:25;94739.63;;;22.90;58.22
5380;BME280;2713;42.680;23.310;2023-08-01T04:30:52;94728.22;;;22.95;58.00
5380;BME280;2713;42.680;23.310;2023-08-01T04:33:19;94730.31;;;22.78;58.49
5380;BME280;2713;42.680;23.310;2023-08-01T04:35:45;94730.88;;;22.80;58.76
5380;BME280;2713;42.680;23.310;2023-08-01T04:38:14;94731.16;;;22.93;57.78
5380;BME280;2713;42.680;23.310;2023-08-01T04:40:41;94730.34;;;22.83;58.34
5380;BME280;2713;42.680;23.310;2023-08-01T04:43:09;94735.63;;;22.72;58.25
5380;BME280;2713;42.680;23.310;2023-08-01T04:45:40;94731.66;;;22.80;58.19
5380;BME280;2713;42.680;23.310;2023-08-01T04:48:07;94724.78;;;22.89;57.97
5380;BME280;2713;42.680;23.310;2023-08-01T04:50:33;94722.94;;;23.05;57.04
5380;BME280;2713;42.680;23.310;2023-08-01T04:53:00;94725.06;;;23.28;55.74
5380;BME280;2713;42.680;23.310;2023-08-01T04:55:27;94725.59;;;23.55;54.64
5380;BME280;2713;42.680;23.310;2023-08-01T04:57:54;94720.16;;;24.06;52.96
5380;BME280;2713;42.680;23.310;2023-08-01T05:00:20;94729.06;;;24.40;52.60
5380;BME280;2713;42.680;23.310;2023-08-01T05:02:48;94716.63;;;24.80;51.60
5380;BME280;2713;42.680;23.310;2023-08-01T05:05:15;94723.56;;;24.76;51.03
5380;BME280;2713;42.680;23.310;2023-08-01T05:07:42;94730.19;;;25.22;49.24
5380;BME280;2713;42.680;23.310;2023-08-01T05:10:09;94719.13;;;25.39;48.64
5380;BME280;2713;42.680;23.310;2023-08-01T05:12:36;94724.16;;;25.74;47.64
5380;BME280;2713;42.680;23.310;2023-08-01T05:15:04;94730.19;;;25.85;47.24
5380;BME280;2713;42.680;23.310;2023-08-01T05:17:31;94726.56;;;25.99;47.31
5380;BME280;2713;42.680;23.310;2023-08-01T05:19:59;94731.47;;;26.11;46.94
5380;BME280;2713;42.680;23.310;2023-08-01T05:22:26;94724.66;;;26.29;46.16
5380;BME280;2713;42.680;23.310;2023-08-01T05:24:52;94727.53;;;26.32;46.51
5380;BME280;2713;42.680;23.310;2023-08-01T05:27:19;94727.00;;;26.72;45.45
5380;BME280;2713;42.680;23.310;2023-08-01T05:29:46;94728.13;;;26.90;44.73
5380;BME280;2713;42.680;23.310;2023-08-01T05:32:12;94726.09;;;27.01;44.27
5380;BME280;2713;42.680;23.310;2023-08-01T05:34:39;94727.72;;;26.59;45.28
5380;BME280;2713;42.680;23.310;2023-08-01T05:37:07;94731.41;;;26.63;45.31
5380;BME280;2713;42.680;23.310;2023-08-01T05:39:34;94734.78;;;26.69;44.92
5380;BME280;2713;42.680;23.310;2023-08-01T05:42:01;94725.88;;;26.97;45.01
5380;BME280;2713;42.680;23.310;2023-08-01T05:44:28;94718.47;;;27.27;44.47
5380;BME280;2713;42.680;23.310;2023-08-01T05:46:55;94723.03;;;27.45;44.07
5380;BME280;2713;42.680;23.310;2023-08-01T05:49:21;94716.50;;;27.51;43.87
5380;BME280;2713;42.680;23.310;2023-08-01T05:51:48;94717.94;;;27.76;42.89
5380;BME280;2713;42.680;23.310;2023-08-01T05:54:16;94723.44;;;27.98;42.17
5380;BME280;2713;42.680;23.310;2023-08-01T05:56:43;94702.59;;;27.95;42.12
5380;BME280;2713;42.680;23.310;2023-08-01T05:59:10;94712.94;;;28.01;42.51
5380;BME280;2713;42.680;23.310;2023-08-01T06:01:37;94719.69;;;28.12;42.32
5380;BME280;2713;42.680;23.310;2023-08-01T06:04:04;94717.00;;;28.40;41.67
5380;BME280;2713;42.680;23.310;2023-08-01T06:06:30;94709.88;;;28.49;41.14
5380;BME280;2713;42.680;23.310;2023-08-01T06:08:57;94707.03;;;28.81;39.91
5380;BME280;2713;42.680;23.310;2023-08-01T06:11:25;94711.09;;;29.14;39.25
5380;BME280;2713;42.680;23.310;2023-08-01T06:13:52;94712.25;;;29.22;39.00
5380;BME280;2713;42.680;23.310;2023-08-01T06:16:19;94710.13;;;29.33;37.98
5380;BME280;2713;42.680;23.310;2023-08-01T06:18:46;94708.06;;;28.72;39.53
5380;BME280;2713;42.680;23.310;2023-08-01T06:21:12;94713.69;;;28.70;39.26
5380;BME280;2713;42.680;23.310;2023-08-01T06:23:39;94708.06;;;28.72;38.77
5380;BME280;2713;42.680;23.310;2023-08-01T06:26:06;94707.88;;;29.04;38.35
5380;BME280;2713;42.680;23.310;2023-08-01T06:28:34;94712.19;;;28.64;38.39
5380;BME280;2713;42.680;23.310;2023-08-01T06:31:01;94690.91;;;28.73;38.64
5380;BME280;2713;42.680;23.310;2023-08-01T06:33:28;94708.88;;;28.94;38.17
5380;BME280;2713;42.680;23.310;2023-08-01T06:35:55;94701.63;;;28.95;38.48
5380;BME280;2713;42.680;23.310;2023-08-01T06:38:22;94704.00;;;29.32;37.54
5380;BME280;2713;42.680;23.310;2023-08-01T06:40:48;94696.31;;;29.61;37.08
5380;BME280;2713;42.680;23.310;2023-08-01T06:43:15;94693.31;;;29.63;37.63
5380;BME280;2713;42.680;23.310;2023-08-01T06:45:43;94702.38;;;29.53;37.01
5380;BME280;2713;42.680;23.310;2023-08-01T06:48:10;94699.75;;;29.31;37.64
5380;BME280;2713;42.680;23.310;2023-08-01T06:50:37;94690.28;;;29.11;37.56
5380;BME280;2713;42.680;23.310;2023-08-01T06:53:03;94695.53;;;29.39;37.31
5380;BME280;2713;42.680;23.310;2023-08-01T06:55:30;94697.94;;;29.80;36.33
5380;BME280;2713;42.680;23.310;2023-08-01T06:57:57;94696.44;;;29.87;35.54
5380;BME280;2713;42.680;23.310;2023-08-01T07:00:24;94693.25;;;30.16;35.08
5380;BME280;2713;42.680;23.310;2023-08-01T07:02:52;94702.72;;;30.13;35.17
5380;BME280;2713;42.680;23.310;2023-08-01T07:05:19;94698.09;;;29.75;36.30
5380;BME280;2713;42.680;23.310;2023-08-01T07:07:46;94694.97;;;30.03;36.16
5380;BME280;2713;42.680;23.310;2023-08-01T07:10:13;94688.06;;;30.28;35.89
5380;BME280;2713;42.680;23.310;2023-08-01T07:12:40;94692.25;;;30.43;36.36
5380;BME280;2713;42.680;23.310;2023-08-01T07:15:08;94684.25;;;30.86;36.06
5380;BME280;2713;42.680;23.310;2023-08-01T07:17:35;94685.81;;;30.87;35.22
5380;BME280;2713;42.680;23.310;2023-08-01T07:20:04;94677.56;;;30.49;35.76
5380;BME280;2713;42.680;23.310;2023-08-01T07:22:30;94663.63;;;30.38;35.44
5380;BME280;2713;42.680;23.310;2023-08-01T07:24:57;94678.72;;;30.82;35.26
5380;BME280;2713;42.680;23.310;2023-08-01T07:27:24;94679.22;;;31.01;34.78
5380;BME280;2713;42.680;23.310;2023-08-01T07:29:51;94669.53;;;30.66;35.33
5380;BME280;2713;42.680;23.310;2023-08-01T07:32:18;94661.22;;;31.02;35.16
5380;BME280;2713;42.680;23.310;2023-08-01T07:34:44;94658.97;;;30.87;35.25
5380;BME280;2713;42.680;23.310;2023-08-01T07:37:12;94662.63;;;31.08;34.80
5380;BME280;2713;42.680;23.310;2023-08-01T07:39:39;94666.09;;;31.26;34.64
5380;BME280;2713;42.680;23.310;2023-08-01T07:42:06;94663.06;;;31.53;34.14
5380;BME280;2713;42.680;23.310;2023-08-01T07:44:33;94668.75;;;30.83;35.02
5380;BME280;2713;42.680;23.310;2023-08-01T07:46:59;94671.50;;;30.26;36.55
5380;BME280;2713;42.680;23.310;2023-08-01T07:49:26;94666.22;;;30.43;36.48
5380;BME280;2713;42.680;23.310;2023-08-01T07:51:53;94682.34;;;30.78;36.09
5380;BME280;2713;42.680;23.310;2023-08-01T07:54:21;94676.53;;;31.01;34.99
5380;BME280;2713;42.680;23.310;2023-08-01T07:56:48;94672.28;;;31.09;35.46
5380;BME280;2713;42.680;23.310;2023-08-01T07:59:15;94658.66;;;31.40;34.86
5380;BME280;2713;42.680;23.310;2023-08-01T08:01:42;94666.88;;;31.90;33.73
5380;BME280;2713;42.680;23.310;2023-08-01T08:04:09;94657.09;;;31.85;34.38
5380;BME280;2713;42.680;23.310;2023-08-01T08:06:36;94660.84;;;31.46;34.41
5380;BME280;2713;42.680;23.310;2023-08-01T08:09:03;94652.56;;;31.68;34.48
5380;BME280;2713;42.680;23.310;2023-08-01T08:11:31;94654.09;;;31.87;34.02
5380;BME280;2713;42.680;23.310;2023-08-01T08:13:58;94651.09;;;31.80;34.52
5380;BME280;2713;42.680;23.310;2023-08-01T08:16:25;94641.22;;;31.63;34.72
5380;BME280;2713;42.680;23.310;2023-08-01T08:18:52;94647.78;;;31.83;34.99
5380;BME280;2713;42.680;23.310;2023-08-01T08:21:19;94644.72;;;31.93;33.82
5380;BME280;2713;42.680;23.310;2023-08-01T08:23:46;94637.59;;;31.50;34.20
5380;BME280;2713;42.680;23.310;2023-08-01T08:26:12;94638.53;;;32.01;33.51
5380;BME280;2713;42.680;23.310;2023-08-01T08:28:41;94647.47;;;32.22;33.04
5380;BME280;2713;42.680;23.310;2023-08-01T08:31:08;94638.97;;;32.11;33.66
5380;BME280;2713;42.680;23.310;2023-08-01T08:33:34;94637.63;;;32.26;33.52
5380;BME280;2713;42.680;23.310;2023-08-01T08:36:01;94628.00;;;32.46;33.21
5380;BME280;2713;42.680;23.310;2023-08-01T08:38:28;94627.13;;;32.83;33.04
5380;BME280;2713;42.680;23.310;2023-08-01T08:41:06;94622.91;;;32.53;33.29
5380;BME280;2713;42.680;23.310;2023-08-01T08:43:34;94618.91;;;32.09;33.78
5380;BME280;2713;42.680;23.310;2023-08-01T08:46:04;94613.06;;;31.98;33.97
5380;BME280;2713;42.680;23.310;2023-08-01T08:48:31;94621.94;;;32.28;33.46
5380;BME280;2713;42.680;23.310;2023-08-01T08:51:00;94615.41;;;33.00;32.28
5380;BME280;2713;42.680;23.310;2023-08-01T08:53:30;94616.22;;;32.80;32.87
5380;BME280;2713;42.680;23.310;2023-08-01T08:55:59;94613.22;;;32.52;32.62
5380;BME280;2713;42.680;23.310;2023-08-01T08:58:26;94600.56;;;32.32;33.43
5380;BME280;2713;42.680;23.310;2023-08-01T09:00:53;94604.34;;;32.31;32.78
5380;BME280;2713;42.680;23.310;2023-08-01T09:03:22;94593.59;;;32.31;32.74
5380;BME280;2713;42.680;23.310;2023-08-01T09:05:50;94607.44;;;32.41;32.88
5380;BME280;2713;42.680;23.310;2023-08-01T09:08:19;94600.94;;;32.22;32.84
5380;BME280;2713;42.680;23.310;2023-08-01T09:10:47;94599.72;;;31.81;33.92
5380;BME280;2713;42.680;23.310;2023-08-01T09:13:14;94592.44;;;31.35;34.24
5380;BME280;2713;42.680;23.310;2023-08-01T09:15:41;94588.84;;;31.23;34.60
5380;BME280;2713;42.680;23.310;2023-08-01T09:18:09;94587.25;;;31.30;34.55
5380;BME280;2713;42.680;23.310;2023-08-01T09:20:47;94582.22;;;31.66;33.56
5380;BME280;2713;42.680;23.310;2023-08-01T09:23:15;94574.63;;;31.22;33.75
5380;BME280;2713;42.680;23.310;2023-08-01T09:25:43;94583.03;;;31.58;33.99
5380;BME280;2713;42.680;23.310;2023-08-01T09:28:17;94579.56;;;31.03;34.09
5380;BME280;2713;42.680;23.310;2023-08-01T09:30:48;94579.88;;;30.76;34.83
5380;BME280;2713;42.680;23.310;2023-08-01T09:33:15;94580.19;;;30.83;34.58
5380;BME280;2713;42.680;23.310;2023-08-01T09:35:43;94567.69;;;31.04;34.24
5380;BME280;2713;42.680;23.310;2023-08-01T09:38:13;94573.91;;;31.42;34.34
5380;BME280;2713;42.680;23.310;2023-08-01T09:40:41;94574.31;;;31.15;34.75
5380;BME280;2713;42.680;23.310;2023-08-01T09:43:10;94572.31;;;31.41;34.52
5380;BME280;2713;42.680;23.310;2023-08-01T09:45:37;94572.13;;;31.63;34.17
5380;BME280;2713;42.680;23.310;2023-08-01T09:48:04;94566.34;;;31.36;34.19
5380;BME280;2713;42.680;23.310;2023-08-01T09:50:31;94557.41;;;31.23;35.14
5380;BME280;2713;42.680;23.310;2023-08-01T09:53:07;94557.75;;;31.59;34.61
5380;BME280;2713;42.680;23.310;2023-08-01T09:55:35;94559.97;;;31.87;34.79
5380;BME280;2713;42.680;23.310;2023-08-01T09:58:04;94553.34;;;32.13;34.32
5380;BME280;2713;42.680;23.310;2023-08-01T10:00:32;94548.28;;;31.83;33.66
5380;BME280;2713;42.680;23.310;2023-08-01T10:03:00;94534.81;;;31.62;34.47
5380;BME280;2713;42.680;23.310;2023-08-01T10:05:29;94543.78;;;31.75;34.03
5380;BME280;2713;42.680;23.310;2023-08-01T10:07:58;94535.19;;;31.43;34.65
5380;BME280;2713;42.680;23.310;2023-08-01T10:10:26;94525.56;;;31.72;34.86
5380;BME280;2713;42.680;23.310;2023-08-01T10:12:56;94527.19;;;31.93;34.66
5380;BME280;2713;42.680;23.310;2023-08-01T10:15:24;94525.09;;;31.99;34.30
5380;BME280;2713;42.680;23.310;2023-08-01T10:17:52;94522.00;;;31.67;34.69
5380;BME280;2713;42.680;23.310;2023-08-01T10:20:20;94519.47;;;31.62;35.36
5380;BME280;2713;42.680;23.310;2023-08-01T10:22:48;94523.72;;;31.93;34.56
5380;BME280;2713;42.680;23.310;2023-08-01T10:25:16;94522.19;;;31.83;34.92
5380;BME280;2713;42.680;23.310;2023-08-01T10:27:43;94517.66;;;31.75;34.37
5380;BME280;2713;42.680;23.310;2023-08-01T10:30:12;94503.47;;;31.28;34.46
5380;BME280;2713;42.680;23.310;2023-08-01T10:32:39;94505.72;;;31.26;35.48
5380;BME280;2713;42.680;23.310;2023-08-01T10:35:07;94488.38;;;31.44;35.66
5380;BME280;2713;42.680;23.310;2023-08-01T10:37:40;94487.94;;;31.42;34.48
5380;BME280;2713;42.680;23.310;2023-08-01T10:40:08;94487.72;;;31.18;35.53
5380;BME280;2713;42.680;23.310;2023-08-01T10:42:39;94491.72;;;31.41;35.49
5380;BME280;2713;42.680;23.310;2023-08-01T10:45:07;94486.94;;;31.55;34.64
5380;BME280;2713;42.680;23.310;2023-08-01T10:47:35;94494.03;;;31.60;34.18
5380;BME280;2713;42.680;23.310;2023-08-01T10:50:13;94486.84;;;31.73;34.78
5380;BME280;2713;42.680;23.310;2023-08-01T10:52:41;94485.75;;;31.74;34.38
5380;BME280;2713;42.680;23.310;2023-08-01T10:55:08;94483.72;;;31.71;33.73
5380;BME280;2713;42.680;23.310;2023-08-01T10:57:36;94475.28;;;31.43;34.32
5380;BME280;2713;42.680;23.310;2023-08-01T11:00:05;94476.25;;;31.38;33.51
5380;BME280;2713;42.680;23.310;2023-08-01T11:02:36;94469.94;;;31.34;33.76
5380;BME280;2713;42.680;23.310;2023-08-01T11:05:05;94464.72;;;31.38;33.90
5380;BME280;2713;42.680;23.310;2023-08-01T11:07:33;94457.38;;;31.26;33.64
5380;BME280;2713;42.680;23.310;2023-08-01T11:10:07;94456.94;;;31.53;33.26
5380;BME280;2713;42.680;23.310;2023-08-01T11:12:36;94448.41;;;31.51;34.02
5380;BME280;2713;42.680;23.310;2023-08-01T11:15:04;94447.75;;;31.54;33.19
5380;BME280;2713;42.680;23.310;2023-08-01T11:17:33;94444.75;;;31.77;33.14
5380;BME280;2713;42.680;23.310;2023-08-01T11:20:03;94440.34;;;31.72;33.48
5380;BME280;2713;42.680;23.310;2023-08-01T11:22:30;94438.06;;;31.62;34.04
5380;BME280;2713;42.680;23.310;2023-08-01T11:24:57;94440.31;;;31.81;33.27
5380;BME280;2713;42.680;23.310;2023-08-01T11:27:24;94430.63;;;31.88;31.75
5380;BME280;2713;42.680;23.310;2023-08-01T11:29:52;94429.94;;;31.41;32.79
5380;BME280;2713;42.680;23.310;2023-08-01T11:32:19;94422.44;;;31.55;31.77
5380;BME280;2713;42.680;23.310;2023-08-01T11:34:47;94427.91;;;31.38;31.62
5380;BME280;2713;42.680;23.310;2023-08-01T11:37:18;94415.53;;;31.46;32.66
5380;BME280;2713;42.680;23.310;2023-08-01T11:39:46;94423.69;;;31.79;31.67
5380;BME280;2713;42.680;23.310;2023-08-01T11:42:15;94425.50;;;31.95;31.61
5380;BME280;2713;42.680;23.310;2023-08-01T11:44:43;94408.22;;;31.76;30.40
5380;BME280;2713;42.680;23.310;2023-08-01T11:47:12;94411.56;;;31.73;31.11
5380;BME280;2713;42.680;23.310;2023-08-01T11:49:44;94406.03;;;31.78;31.24
5380;BME280;2713;42.680;23.310;2023-08-01T11:52:23;94410.34;;;31.70;32.40
5380;BME280;2713;42.680;23.310;2023-08-01T11:54:50;94404.44;;;31.77;32.76
5380;BME280;2713;42.680;23.310;2023-08-01T11:57:17;94410.59;;;31.77;32.30
5380;BME280;2713;42.680;23.310;2023-08-01T11:59:47;94405.00;;;31.61;32.58
5380;BME280;2713;42.680;23.310;2023-08-01T12:02:24;94388.63;;;31.54;31.99
5380;BME280;2713;42.680;23.310;2023-08-01T12:04:52;94385.94;;;31.25;31.77
5380;BME280;2713;42.680;23.310;2023-08-01T12:07:19;94373.19;;;30.76;32.74
5380;BME280;2713;42.680;23.310;2023-08-01T12:09:56;94384.84;;;30.97;31.90
5380;BME280;2713;42.680;23.310;2023-08-01T12:12:23;94389.66;;;30.74;32.21
5380;BME280;2713;42.680;23.310;2023-08-01T12:14:50;94379.16;;;30.90;32.15
5380;BME280;2713;42.680;23.310;2023-08-01T12:17:18;94377.31;;;31.20;30.66
5380;BME280;2713;42.680;23.310;2023-08-01T12:19:45;94375.59;;;31.15;31.68
5380;BME280;2713;42.680;23.310;2023-08-01T12:22:12;94369.66;;;31.01;29.85
5380;BME280;2713;42.680;23.310;2023-08-01T12:24:40;94372.38;;;30.84;30.64
5380;BME280;2713;42.680;23.310;2023-08-01T12:27:08;94371.72;;;30.95;30.63
5380;BME280;2713;42.680;23.310;2023-08-01T12:29:35;94356.72;;;31.03;32.03
5380;BME280;2713;42.680;23.310;2023-08-01T12:32:03;94339.81;;;31.02;32.09
5380;BME280;2713;42.680;23.310;2023-08-01T12:34:30;94369.94;;;31.08;32.99
5380;BME280;2713;42.680;23.310;2023-08-01T12:36:56;94358.13;;;31.30;31.67
5380;BME280;2713;42.680;23.310;2023-08-01T12:39:23;94355.97;;;31.44;31.24
5380;BME280;2713;42.680;23.310;2023-08-01T12:41:51;94356.47;;;31.37;31.58
5380;BME280;2713;42.680;23.310;2023-08-01T12:44:20;94353.88;;;30.91;31.78
5380;BME280;2713;42.680;23.310;2023-08-01T12:46:46;94364.56;;;31.08;31.33
5380;BME280;2713;42.680;23.310;2023-08-01T12:49:13;94349.38;;;31.12;31.37
5380;BME280;2713;42.680;23.310;2023-08-01T12:51:40;94359.75;;;31.22;30.93
5380;BME280;2713;42.680;23.310;2023-08-01T12:54:07;94353.06;;;31.28;30.56
5380;BME280;2713;42.680;23.310;2023-08-01T12:56:34;94354.31;;;31.31;29.88
5380;BME280;2713;42.680;23.310;2023-08-01T12:59:00;94353.06;;;31.49;29.42
5380;BME280;2713;42.680;23.310;2023-08-01T13:01:29;94339.50;;;31.54;29.07
5380;BME280;2713;42.680;23.310;2023-08-01T13:03:55;94333.03;;;31.46;29.07
5380;BME280;2713;42.680;23.310;2023-08-01T13:06:22;94332.25;;;31.66;29.26
5380;BME280;2713;42.680;23.310;2023-08-01T13:08:49;94326.06;;;31.87;28.39
5380;BME280;2713;42.680;23.310;2023-08-01T13:11:16;94323.41;;;31.99;26.98
5380;BME280;2713;42.680;23.310;2023-08-01T13:13:42;94312.50;;;32.16;26.19